sensor_id;sensor_type;location;lat;lon;timestamp;temperature;humidity
75210;DHT22;63796;53.136;14.882;2023-11-18T08:58:02;8.30;99.90
75210;DHT22;63796;53.136;14.882;2023-11-18T09:00:31;7.40;99.90
75210;DHT22;63796;53.136;14.882;2023-11-18T09:03:15;7.00;99.90
75210;DHT22;63796;53.136;14.882;2023-11-18T09:05:55;7.20;99.90
75210;DHT22;63796;53.136;14.882;2023-11-18T09:10:56;7.50;99.90
75210;DHT22;63796;53.136;14.882;2023-11-18T09:13:25;7.40;99.90
75210;DHT22;63796;53.136;14.882;2023-11-18T09:15:57;7.30;99.90
75210;DHT22;63796;53.136;14.882;2023-11-18T09:18:28;7.20;99.90
75210;DHT22;63796;53.136;14.882;2023-11-18T09:20:57;7.10;99.90
75210;DHT22;63796;53.136;14.882;2023-11-18T09:23:34;7.00;99.90
75210;DHT22;63796;53.136;14.882;2023-11-18T09:26:01;7.00;99.90
75210;DHT22;63796;53.136;14.882;2023-11-18T09:28:34;7.00;99.90
75210;DHT22;63796;53.136;14.882;2023-11-18T09:31:03;7.10;99.90
75210;DHT22;63796;53.136;14.882;2023-11-18T09:33:32;6.90;99.90
75210;DHT22;63796;53.136;14.882;2023-11-18T09:36:02;7.00;99.90
75210;DHT22;63796;53.136;14.882;2023-11-18T09:38:35;7.00;99.90
75210;DHT22;63796;53.136;14.882;2023-11-18T09:41:04;7.10;99.90
75210;DHT22;63796;53.136;14.882;2023-11-18T09:43:34;7.20;99.90
75210;DHT22;63796;53.136;14.882;2023-11-18T09:46:25;7.20;99.90
75210;DHT22;63796;53.136;14.882;2023-11-18T09:51:44;7.30;99.90
75210;DHT22;63796;53.136;14.882;2023-11-18T09:57:04;7.20;99.90
75210;DHT22;63796;53.136;14.882;2023-11-18T09:59:46;7.40;99.90
75210;DHT22;63796;53.136;14.882;2023-11-18T10:02:25;7.50;99.90
75210;DHT22;63796;53.136;14.882;2023-11-18T10:04:53;7.50;99.90
75210;DHT22;63796;53.136;14.882;2023-11-18T10:07:25;7.50;99.90
75210;DHT22;63796;53.136;14.882;2023-11-18T10:10:00;7.50;99.90
75210;DHT22;63796;53.136;14.882;2023-11-18T10:12:29;7.40;99.90
75210;DHT22;63796;53.136;14.882;2023-11-18T10:14:56;7.40;99.90
75210;DHT22;63796;53.136;14.882;2023-11-18T10:17:25;7.50;99.90
75210;DHT22;63796;53.136;14.882;2023-11-18T10:19:54;7.50;99.90
75210;DHT22;63796;53.136;14.882;2023-11-18T10:22:23;7.50;99.90
75210;DHT22;63796;53.136;14.882;2023-11-18T10:24:51;7.40;99.90
75210;DHT22;63796;53.136;14.882;2023-11-18T10:27:24;7.40;99.90
75210;DHT22;63796;53.136;14.882;2023-11-18T10:29:57;7.40;99.90
75210;DHT22;63796;53.136;14.882;2023-11-18T10:32:25;7.30;99.90
75210;DHT22;63796;53.136;14.882;2023-11-18T10:34:56;7.30;99.90
75210;DHT22;63796;53.136;14.882;2023-11-18T10:37:25;7.30;99.90
75210;DHT22;63796;53.136;14.882;2023-11-18T10:39:52;7.40;99.90
75210;DHT22;63796;53.136;14.882;2023-11-18T10:42:20;7.30;99.90
75210;DHT22;63796;53.136;14.882;2023-11-18T10:44:56;7.30;99.90
75210;DHT22;63796;53.136;14.882;2023-11-18T10:55:38;7.30;99.90
75210;DHT22;63796;53.136;14.882;2023-11-18T11:02:46;7.60;99.90
75210;DHT22;63796;53.136;14.882;2023-11-18T11:05:29;8.00;99.90
75210;DHT22;63796;53.136;14.882;2023-11-18T11:08:05;8.20;99.90
75210;DHT22;63796;53.136;14.882;2023-11-18T11:10:35;8.40;99.90
75210;DHT22;63796;53.136;14.882;2023-11-18T11:13:03;8.60;99.90
75210;DHT22;63796;53.136;14.882;2023-11-18T11:15:36;9.30;99.90
75210;DHT22;63796;53.136;14.882;2023-11-18T11:18:23;9.50;99.90
75210;DHT22;63796;53.136;14.882;2023-11-18T11:21:14;10.00;99.90
75210;DHT22;63796;53.136;14.882;2023-11-18T11:29:04;10.90;99.90
75210;DHT22;63796;53.136;14.882;2023-11-18T11:32:12;11.10;99.90
75210;DHT22;63796;53.136;14.882;2023-11-18T11:34:53;11.00;99.90
75210;DHT22;63796;53.136;14.882;2023-11-18T11:37:24;10.30;99.90
75210;DHT22;63796;53.136;14.882;2023-11-18T11:39:57;9.70;99.90
75210;DHT22;63796;53.136;14.882;2023-11-18T11:42:25;9.50;99.90
75210;DHT22;63796;53.136;14.882;2023-11-18T11:44:53;9.30;99.90
75210;DHT22;63796;53.136;14.882;2023-11-18T11:47:22;9.20;99.90
75210;DHT22;63796;53.136;14.882;2023-11-18T11:50:05;9.00;99.90
75210;DHT22;63796;53.136;14.882;2023-11-18T11:52:43;9.10;99.90
75210;DHT22;63796;53.136;14.882;2023-11-18T11:55:18;9.30;99.90
75210;DHT22;63796;53.136;14.882;2023-11-18T11:57:55;9.40;99.90
75210;DHT22;63796;53.136;14.882;2023-11-18T12:00:25;9.50;99.90
75210;DHT22;63796;53.136;14.882;2023-11-18T12:03:01;9.50;99.90
75210;DHT22;63796;53.136;14.882;2023-11-18T12:05:32;9.70;99.90
75210;DHT22;63796;53.136;14.882;2023-11-18T12:08:01;9.70;99.90
75210;DHT22;63796;53.136;14.882;2023-11-18T12:10:31;9.50;99.90
75210;DHT22;63796;53.136;14.882;2023-11-18T12:13:08;9.40;99.90
75210;DHT22;63796;53.136;14.882;2023-11-18T12:15:52;9.20;99.90
75210;DHT22;63796;53.136;14.882;2023-11-18T12:18:22;8.90;99.90
75210;DHT22;63796;53.136;14.882;2023-11-18T12:20:53;8.70;99.90
75210;DHT22;63796;53.136;14.882;2023-11-18T12:23:24;8.60;99.90
75210;DHT22;63796;53.136;14.882;2023-11-18T12:25:53;8.60;99.90
75210;DHT22;63796;53.136;14.882;2023-11-18T12:28:28;8.50;99.90
75210;DHT22;63796;53.136;14.882;2023-11-18T12:31:03;8.40;99.90
75210;DHT22;63796;53.136;14.882;2023-11-18T12:36:44;8.30;99.90
75210;DHT22;63796;53.136;14.882;2023-11-18T12:42:39;8.50;99.90
75210;DHT22;63796;53.136;14.882;2023-11-18T12:45:52;8.60;99.90
75210;DHT22;63796;53.136;14.882;2023-11-18T12:48:45;8.70;99.90
75210;DHT22;63796;53.136;14.882;2023-11-18T12:51:18;8.80;99.90
75210;DHT22;63796;53.136;14.882;2023-11-18T12:53:48;8.70;99.90
75210;DHT22;63796;53.136;14.882;2023-11-18T12:56:20;8.60;99.90
75210;DHT22;63796;53.136;14.882;2023-11-18T12:58:51;8.70;99.90
75210;DHT22;63796;53.136;14.882;2023-11-18T13:01:20;8.50;99.90
75210;DHT22;63796;53.136;14.882;2023-11-18T13:03:47;8.40;99.90
75210;DHT22;63796;53.136;14.882;2023-11-18T13:06:15;8.50;99.90
75210;DHT22;63796;53.136;14.882;2023-11-18T13:08:42;8.90;99.90
75210;DHT22;63796;53.136;14.882;2023-11-18T13:11:10;9.00;99.90
75210;DHT22;63796;53.136;14.882;2023-11-18T13:13:43;9.10;99.90
75210;DHT22;63796;53.136;14.882;2023-11-18T13:16:10;9.20;99.90
75210;DHT22;63796;53.136;14.882;2023-11-18T13:18:42;9.30;99.90
75210;DHT22;63796;53.136;14.882;2023-11-18T13:21:17;9.40;99.90
75210;DHT22;63796;53.136;14.882;2023-11-18T13:23:49;9.60;99.90
75210;DHT22;63796;53.136;14.882;2023-11-18T13:26:20;9.70;99.90
75210;DHT22;63796;53.136;14.882;2023-11-18T13:28:48;9.80;99.90
75210;DHT22;63796;53.136;14.882;2023-11-18T13:31:16;9.90;99.90
75210;DHT22;63796;53.136;14.882;2023-11-18T13:33:46;9.90;99.90
75210;DHT22;63796;53.136;14.882;2023-11-18T13:36:16;10.00;99.90
75210;DHT22;63796;53.136;14.882;2023-11-18T13:38:43;10.10;99.90
75210;DHT22;63796;53.136;14.882;2023-11-18T13:41:11;9.80;99.90
75210;DHT22;63796;53.136;14.882;2023-11-18T13:43:41;9.70;99.90
75210;DHT22;63796;53.136;14.882;2023-11-18T13:46:12;9.80;99.90
75210;DHT22;63796;53.136;14.882;2023-11-18T13:48:40;9.80;99.90
75210;DHT22;63796;53.136;14.882;2023-11-18T13:51:11;9.80;99.90
75210;DHT22;63796;53.136;14.882;2023-11-18T13:53:40;9.70;99.90
75210;DHT22;63796;53.136;14.882;2023-11-18T13:56:08;9.80;99.90
75210;DHT22;63796;53.136;14.882;2023-11-18T13:58:42;10.00;99.90
75210;DHT22;63796;53.136;14.882;2023-11-18T14:01:12;10.10;99.90
75210;DHT22;63796;53.136;14.882;2023-11-18T14:03:40;10.20;99.90
75210;DHT22;63796;53.136;14.882;2023-11-18T14:06:12;10.00;99.90
75210;DHT22;63796;53.136;14.882;2023-11-18T14:08:44;9.80;99.90
75210;DHT22;63796;53.136;14.882;2023-11-18T14:11:13;9.50;99.90
75210;DHT22;63796;53.136;14.882;2023-11-18T14:13:44;9.40;99.90
75210;DHT22;63796;53.136;14.882;2023-11-18T14:16:11;9.10;99.90
75210;DHT22;63796;53.136;14.882;2023-11-18T14:18:40;9.00;99.90
75210;DHT22;63796;53.136;14.882;2023-11-18T14:21:09;8.90;99.90
75210;DHT22;63796;53.136;14.882;2023-11-18T14:23:36;8.80;99.90
75210;DHT22;63796;53.136;14.882;2023-11-18T14:26:07;8.80;99.90
75210;DHT22;63796;53.136;14.882;2023-11-18T14:28:35;8.80;99.90
75210;DHT22;63796;53.136;14.882;2023-11-18T14:31:03;8.70;99.90
75210;DHT22;63796;53.136;14.882;2023-11-18T14:33:37;8.70;99.90
75210;DHT22;63796;53.136;14.882;2023-11-18T14:36:04;8.50;99.90
75210;DHT22;63796;53.136;14.882;2023-11-18T14:38:32;8.30;99.90
75210;DHT22;63796;53.136;14.882;2023-11-18T14:41:01;8.30;99.90
75210;DHT22;63796;53.136;14.882;2023-11-18T14:43:31;8.10;99.90
75210;DHT22;63796;53.136;14.882;2023-11-18T14:45:59;8.00;99.90
75210;DHT22;63796;53.136;14.882;2023-11-18T14:48:27;7.90;99.90
75210;DHT22;63796;53.136;14.882;2023-11-18T14:50:56;7.90;99.90
75210;DHT22;63796;53.136;14.882;2023-11-18T14:53:24;7.80;99.90
75210;DHT22;63796;53.136;14.882;2023-11-18T14:55:52;7.70;99.90
75210;DHT22;63796;53.136;14.882;2023-11-18T14:58:19;7.50;99.90
75210;DHT22;63796;53.136;14.882;2023-11-18T15:00:47;7.40;99.90
75210;DHT22;63796;53.136;14.882;2023-11-18T15:03:14;7.40;99.90
75210;DHT22;63796;53.136;14.882;2023-11-18T15:05:43;7.20;99.90
75210;DHT22;63796;53.136;14.882;2023-11-18T15:08:13;7.10;99.90
75210;DHT22;63796;53.136;14.882;2023-11-18T15:10:43;7.00;99.90
75210;DHT22;63796;53.136;14.882;2023-11-18T15:13:11;6.90;99.90
75210;DHT22;63796;53.136;14.882;2023-11-18T15:15:43;6.90;99.90
75210;DHT22;63796;53.136;14.882;2023-11-18T15:18:14;6.90;99.90
75210;DHT22;63796;53.136;14.882;2023-11-18T15:20:45;6.70;99.90
75210;DHT22;63796;53.136;14.882;2023-11-18T15:23:15;6.70;99.90
75210;DHT22;63796;53.136;14.882;2023-11-18T15:25:49;6.70;99.90
75210;DHT22;63796;53.136;14.882;2023-11-18T15:28:17;6.40;99.90
75210;DHT22;63796;53.136;14.882;2023-11-18T15:30:45;6.20;99.90
75210;DHT22;63796;53.136;14.882;2023-11-18T15:33:13;6.10;99.90
75210;DHT22;63796;53.136;14.882;2023-11-18T15:35:42;6.00;99.90
75210;DHT22;63796;53.136;14.882;2023-11-18T15:38:12;6.10;99.90
75210;DHT22;63796;53.136;14.882;2023-11-18T15:40:47;6.10;99.90
75210;DHT22;63796;53.136;14.882;2023-11-18T15:43:17;6.20;99.90
75210;DHT22;63796;53.136;14.882;2023-11-18T15:45:44;6.10;99.90
75210;DHT22;63796;53.136;14.882;2023-11-18T15:48:12;6.00;99.90
75210;DHT22;63796;53.136;14.882;2023-11-18T15:50:41;5.80;99.90
75210;DHT22;63796;53.136;14.882;2023-11-18T15:53:09;5.70;99.90
75210;DHT22;63796;53.136;14.882;2023-11-18T15:55:41;5.60;99.90
75210;DHT22;63796;53.136;14.882;2023-11-18T15:58:15;5.70;99.90
75210;DHT22;63796;53.136;14.882;2023-11-18T16:00:46;5.60;99.90
75210;DHT22;63796;53.136;14.882;2023-11-18T16:03:14;5.50;99.90
75210;DHT22;63796;53.136;14.882;2023-11-18T16:05:41;5.40;99.90
75210;DHT22;63796;53.136;14.882;2023-11-18T16:08:09;5.30;99.90
75210;DHT22;63796;53.136;14.882;2023-11-18T16:10:37;5.40;99.90
75210;DHT22;63796;53.136;14.882;2023-11-18T16:13:04;5.40;99.90
75210;DHT22;63796;53.136;14.882;2023-11-18T16:15:32;5.30;99.90
75210;DHT22;63796;53.136;14.882;2023-11-18T16:18:00;5.40;99.90
75210;DHT22;63796;53.136;14.882;2023-11-18T16:20:29;5.20;99.90
75210;DHT22;63796;53.136;14.882;2023-11-18T16:23:01;5.30;99.90
75210;DHT22;63796;53.136;14.882;2023-11-18T16:25:32;5.30;99.90
75210;DHT22;63796;53.136;14.882;2023-11-18T16:28:03;5.30;99.90
75210;DHT22;63796;53.136;14.882;2023-11-18T16:30:32;5.30;99.90
75210;DHT22;63796;53.136;14.882;2023-11-18T16:33:00;5.30;99.90
75210;DHT22;63796;53.136;14.882;2023-11-18T16:35:29;5.30;99.90
75210;DHT22;63796;53.136;14.882;2023-11-18T16:37:57;5.30;99.90
75210;DHT22;63796;53.136;14.882;2023-11-18T16:40:28;5.10;99.90
75210;DHT22;63796;53.136;14.882;2023-11-18T16:42:56;5.20;99.90
75210;DHT22;63796;53.136;14.882;2023-11-18T16:45:26;5.20;99.90
75210;DHT22;63796;53.136;14.882;2023-11-18T16:47:54;5.20;99.90
75210;DHT22;63796;53.136;14.882;2023-11-18T16:50:22;5.20;99.90
75210;DHT22;63796;53.136;14.882;2023-11-18T16:52:52;5.20;99.90
75210;DHT22;63796;53.136;14.882;2023-11-18T16:55:19;5.20;99.90
75210;DHT22;63796;53.136;14.882;2023-11-18T16:57:50;5.00;99.90
75210;DHT22;63796;53.136;14.882;2023-11-18T17:00:21;4.80;99.90
75210;DHT22;63796;53.136;14.882;2023-11-18T17:02:53;4.80;99.90
75210;DHT22;63796;53.136;14.882;2023-11-18T17:05:26;4.70;99.90
75210;DHT22;63796;53.136;14.882;2023-11-18T17:07:58;4.70;99.90
75210;DHT22;63796;53.136;14.882;2023-11-18T17:10:28;4.60;99.90
75210;DHT22;63796;53.136;14.882;2023-11-18T17:12:55;4.60;99.90
75210;DHT22;63796;53.136;14.882;2023-11-18T17:15:25;4.60;99.90
75210;DHT22;63796;53.136;14.882;2023-11-18T17:17:52;4.60;99.90
75210;DHT22;63796;53.136;14.882;2023-11-18T17:20:29;4.60;99.90
75210;DHT22;63796;53.136;14.882;2023-11-18T17:22:58;4.60;99.90
75210;DHT22;63796;53.136;14.882;2023-11-18T17:25:25;4.50;99.90
75210;DHT22;63796;53.136;14.882;2023-11-18T17:27:52;4.60;99.90
75210;DHT22;63796;53.136;14.882;2023-11-18T17:30:20;4.70;99.90
75210;DHT22;63796;53.136;14.882;2023-11-18T17:32:48;4.60;99.90
75210;DHT22;63796;53.136;14.882;2023-11-18T17:35:20;4.70;99.90
75210;DHT22;63796;53.136;14.882;2023-11-18T17:37:49;4.70;99.90
75210;DHT22;63796;53.136;14.882;2023-11-18T17:40:16;4.70;99.90
75210;DHT22;63796;53.136;14.882;2023-11-18T17:42:48;4.70;99.90
75210;DHT22;63796;53.136;14.882;2023-11-18T17:45:20;4.70;99.90
75210;DHT22;63796;53.136;14.882;2023-11-18T17:47:48;4.60;99.90
75210;DHT22;63796;53.136;14.882;2023-11-18T17:50:15;4.70;99.90
75210;DHT22;63796;53.136;14.882;2023-11-18T17:52:59;4.80;99.90
75210;DHT22;63796;53.136;14.882;2023-11-18T17:55:30;4.80;99.90
75210;DHT22;63796;53.136;14.882;2023-11-18T17:57:58;4.90;99.90
75210;DHT22;63796;53.136;14.882;2023-11-18T18:00:25;4.90;99.90
75210;DHT22;63796;53.136;14.882;2023-11-18T18:02:54;4.90;99.90
75210;DHT22;63796;53.136;14.882;2023-11-18T18:05:25;4.80;99.90
75210;DHT22;63796;53.136;14.882;2023-11-18T18:07:52;4.80;99.90
75210;DHT22;63796;53.136;14.882;2023-11-18T18:10:20;4.80;99.90
75210;DHT22;63796;53.136;14.882;2023-11-18T18:12:50;4.80;99.90
75210;DHT22;63796;53.136;14.882;2023-11-18T18:15:18;4.80;99.90
75210;DHT22;63796;53.136;14.882;2023-11-18T18:17:45;4.90;99.90
75210;DHT22;63796;53.136;14.882;2023-11-18T18:20:14;4.90;99.90
75210;DHT22;63796;53.136;14.882;2023-11-18T18:22:42;4.90;99.90
75210;DHT22;63796;53.136;14.882;2023-11-18T18:25:10;4.90;99.90
75210;DHT22;63796;53.136;14.882;2023-11-18T18:27:40;4.90;99.90
75210;DHT22;63796;53.136;14.882;2023-11-18T18:30:10;5.00;99.90
75210;DHT22;63796;53.136;14.882;2023-11-18T18:32:38;5.00;99.90
75210;DHT22;63796;53.136;14.882;2023-11-18T18:35:06;5.10;99.90
75210;DHT22;63796;53.136;14.882;2023-11-18T18:37:34;5.10;99.90
75210;DHT22;63796;53.136;14.882;2023-11-18T18:40:05;5.00;99.90
75210;DHT22;63796;53.136;14.882;2023-11-18T18:42:32;5.00;99.90
75210;DHT22;63796;53.136;14.882;2023-11-18T18:45:00;5.10;99.90
75210;DHT22;63796;53.136;14.882;2023-11-18T18:47:27;5.10;99.90
75210;DHT22;63796;53.136;14.882;2023-11-18T18:49:56;5.20;99.90
75210;DHT22;63796;53.136;14.882;2023-11-18T18:52:24;5.20;99.90
75210;DHT22;63796;53.136;14.882;2023-11-18T18:54:52;5.20;99.90
75210;DHT22;63796;53.136;14.882;2023-11-18T18:57:19;5.10;99.90
75210;DHT22;63796;53.136;14.882;2023-11-18T18:59:47;5.00;99.90
75210;DHT22;63796;53.136;14.882;2023-11-18T19:02:15;5.10;99.90
75210;DHT22;63796;53.136;14.882;2023-11-18T19:04:43;5.00;99.90
75210;DHT22;63796;53.136;14.882;2023-11-18T19:07:10;5.00;99.90
75210;DHT22;63796;53.136;14.882;2023-11-18T19:09:38;5.00;99.90
75210;DHT22;63796;53.136;14.882;2023-11-18T19:12:05;5.00;99.90
75210;DHT22;63796;53.136;14.882;2023-11-18T19:14:35;4.90;99.90
75210;DHT22;63796;53.136;14.882;2023-11-18T19:17:02;4.90;99.90
75210;DHT22;63796;53.136;14.882;2023-11-18T19:19:31;4.90;99.90
75210;DHT22;63796;53.136;14.882;2023-11-18T19:21:59;4.90;99.90
75210;DHT22;63796;53.136;14.882;2023-11-18T19:24:27;4.80;99.90
75210;DHT22;63796;53.136;14.882;2023-11-18T19:26:55;4.80;99.90
75210;DHT22;63796;53.136;14.882;2023-11-18T19:29:23;4.80;99.90
75210;DHT22;63796;53.136;14.882;2023-11-18T19:31:51;4.80;99.90
75210;DHT22;63796;53.136;14.882;2023-11-18T19:34:18;4.80;99.90
75210;DHT22;63796;53.136;14.882;2023-11-18T19:36:48;4.70;99.90
75210;DHT22;63796;53.136;14.882;2023-11-18T19:39:16;4.60;99.90
75210;DHT22;63796;53.136;14.882;2023-11-18T19:41:44;4.60;99.90
75210;DHT22;63796;53.136;14.882;2023-11-18T19:44:11;4.60;99.90
75210;DHT22;63796;53.136;14.882;2023-11-18T19:46:38;4.60;99.90
75210;DHT22;63796;53.136;14.882;2023-11-18T19:49:06;4.50;99.90
75210;DHT22;63796;53.136;14.882;2023-11-18T19:51:34;4.50;99.90
75210;DHT22;63796;53.136;14.882;2023-11-18T19:54:01;4.50;99.90
75210;DHT22;63796;53.136;14.882;2023-11-18T19:56:29;4.40;99.90
75210;DHT22;63796;53.136;14.882;2023-11-18T19:58:57;4.40;99.90
75210;DHT22;63796;53.136;14.882;2023-11-18T20:01:24;4.30;99.90
75210;DHT22;63796;53.136;14.882;2023-11-18T20:03:52;4.30;99.90
75210;DHT22;63796;53.136;14.882;2023-11-18T20:06:20;4.30;99.90
75210;DHT22;63796;53.136;14.882;2023-11-18T20:08:47;4.30;99.90
75210;DHT22;63796;53.136;14.882;2023-11-18T20:11:14;4.30;99.90
75210;DHT22;63796;53.136;14.882;2023-11-18T20:13:42;4.40;99.90
75210;DHT22;63796;53.136;14.882;2023-11-18T20:16:09;4.40;99.90
75210;DHT22;63796;53.136;14.882;2023-11-18T20:18:39;4.50;99.90
75210;DHT22;63796;53.136;14.882;2023-11-18T20:21:06;4.50;99.90
75210;DHT22;63796;53.136;14.882;2023-11-18T20:23:35;4.40;99.90
75210;DHT22;63796;53.136;14.882;2023-11-18T20:26:03;4.40;99.90
75210;DHT22;63796;53.136;14.882;2023-11-18T20:28:31;4.40;99.90
75210;DHT22;63796;53.136;14.882;2023-11-18T20:31:01;4.40;99.90
75210;DHT22;63796;53.136;14.882;2023-11-18T20:33:28;4.40;99.90
75210;DHT22;63796;53.136;14.882;2023-11-18T20:35:56;4.40;99.90
75210;DHT22;63796;53.136;14.882;2023-11-18T20:38:25;4.30;99.90
75210;DHT22;63796;53.136;14.882;2023-11-18T20:40:54;4.30;99.90
75210;DHT22;63796;53.136;14.882;2023-11-18T20:43:21;4.30;99.90
75210;DHT22;63796;53.136;14.882;2023-11-18T20:45:49;4.30;99.90
75210;DHT22;63796;53.136;14.882;2023-11-18T20:48:16;4.30;99.90
75210;DHT22;63796;53.136;14.882;2023-11-18T20:50:44;4.40;99.90
75210;DHT22;63796;53.136;14.882;2023-11-18T20:53:18;4.30;99.90
75210;DHT22;63796;53.136;14.882;2023-11-18T20:55:45;4.30;99.90
75210;DHT22;63796;53.136;14.882;2023-11-18T20:58:14;4.30;99.90
75210;DHT22;63796;53.136;14.882;2023-11-18T21:00:41;4.30;99.90
75210;DHT22;63796;53.136;14.882;2023-11-18T21:03:09;4.20;99.90
75210;DHT22;63796;53.136;14.882;2023-11-18T21:05:36;4.20;99.90
75210;DHT22;63796;53.136;14.882;2023-11-18T21:08:04;4.20;99.90
75210;DHT22;63796;53.136;14.882;2023-11-18T21:10:32;4.10;99.90
75210;DHT22;63796;53.136;14.882;2023-11-18T21:13:00;4.10;99.90
75210;DHT22;63796;53.136;14.882;2023-11-18T21:15:27;4.10;99.90
75210;DHT22;63796;53.136;14.882;2023-11-18T21:17:55;4.10;99.90
75210;DHT22;63796;53.136;14.882;2023-11-18T21:20:22;4.10;99.90
75210;DHT22;63796;53.136;14.882;2023-11-18T21:22:50;4.10;99.90
75210;DHT22;63796;53.136;14.882;2023-11-18T21:25:19;4.00;99.90
75210;DHT22;63796;53.136;14.882;2023-11-18T21:27:47;4.00;99.90
75210;DHT22;63796;53.136;14.882;2023-11-18T21:30:14;4.00;99.90
75210;DHT22;63796;53.136;14.882;2023-11-18T21:32:42;4.00;99.90
75210;DHT22;63796;53.136;14.882;2023-11-18T21:35:10;4.00;99.90
75210;DHT22;63796;53.136;14.882;2023-11-18T21:37:41;4.00;99.90
75210;DHT22;63796;53.136;14.882;2023-11-18T21:40:09;4.00;99.90
75210;DHT22;63796;53.136;14.882;2023-11-18T21:42:40;4.00;99.90
75210;DHT22;63796;53.136;14.882;2023-11-18T21:45:08;4.00;99.90
75210;DHT22;63796;53.136;14.882;2023-11-18T21:47:40;4.00;99.90
75210;DHT22;63796;53.136;14.882;2023-11-18T21:50:12;4.00;99.90
75210;DHT22;63796;53.136;14.882;2023-11-18T21:52:41;4.00;99.90
75210;DHT22;63796;53.136;14.882;2023-11-18T21:55:10;4.00;99.90
75210;DHT22;63796;53.136;14.882;2023-11-18T21:57:40;4.00;99.90
75210;DHT22;63796;53.136;14.882;2023-11-18T22:00:09;4.10;99.90
75210;DHT22;63796;53.136;14.882;2023-11-18T22:02:40;4.00;99.90
75210;DHT22;63796;53.136;14.882;2023-11-18T22:05:12;4.00;99.90
75210;DHT22;63796;53.136;14.882;2023-11-18T22:07:44;4.10;99.90
75210;DHT22;63796;53.136;14.882;2023-11-18T22:10:12;4.10;99.90
75210;DHT22;63796;53.136;14.882;2023-11-18T22:12:43;4.10;99.90
75210;DHT22;63796;53.136;14.882;2023-11-18T22:15:11;4.10;99.90
75210;DHT22;63796;53.136;14.882;2023-11-18T22:17:45;4.10;99.90
75210;DHT22;63796;53.136;14.882;2023-11-18T22:20:14;4.00;99.90
75210;DHT22;63796;53.136;14.882;2023-11-18T22:22:44;4.00;99.90
75210;DHT22;63796;53.136;14.882;2023-11-18T22:25:16;4.00;99.90
75210;DHT22;63796;53.136;14.882;2023-11-18T22:27:43;3.90;99.90
75210;DHT22;63796;53.136;14.882;2023-11-18T22:30:14;4.00;99.90
75210;DHT22;63796;53.136;14.882;2023-11-18T22:32:43;4.00;99.90
75210;DHT22;63796;53.136;14.882;2023-11-18T22:35:11;4.00;99.90
75210;DHT22;63796;53.136;14.882;2023-11-18T22:37:38;4.00;99.90
75210;DHT22;63796;53.136;14.882;2023-11-18T22:40:06;4.00;99.90
75210;DHT22;63796;53.136;14.882;2023-11-18T22:42:37;4.00;99.90
75210;DHT22;63796;53.136;14.882;2023-11-18T22:45:06;4.00;99.90
75210;DHT22;63796;53.136;14.882;2023-11-18T22:47:43;4.00;99.90
75210;DHT22;63796;53.136;14.882;2023-11-18T22:50:12;3.90;99.90
75210;DHT22;63796;53.136;14.882;2023-11-18T22:52:40;4.00;99.90
75210;DHT22;63796;53.136;14.882;2023-11-18T22:55:08;3.90;99.90
75210;DHT22;63796;53.136;14.882;2023-11-18T22:57:39;3.90;99.90
75210;DHT22;63796;53.136;14.882;2023-11-18T23:00:06;3.90;99.90
75210;DHT22;63796;53.136;14.882;2023-11-18T23:02:54;3.90;99.90
75210;DHT22;63796;53.136;14.882;2023-11-18T23:05:21;3.90;99.90
75210;DHT22;63796;53.136;14.882;2023-11-18T23:07:52;3.90;99.90
75210;DHT22;63796;53.136;14.882;2023-11-18T23:10:23;3.90;99.90
75210;DHT22;63796;53.136;14.882;2023-11-18T23:12:52;3.90;99.90
75210;DHT22;63796;53.136;14.882;2023-11-18T23:15:22;3.90;99.90
75210;DHT22;63796;53.136;14.882;2023-11-18T23:17:51;3.90;99.90
75210;DHT22;63796;53.136;14.882;2023-11-18T23:20:19;3.90;99.90
75210;DHT22;63796;53.136;14.882;2023-11-18T23:22:48;3.90;99.90
75210;DHT22;63796;53.136;14.882;2023-11-18T23:25:18;3.90;99.90
75210;DHT22;63796;53.136;14.882;2023-11-18T23:27:46;3.90;99.90
75210;DHT22;63796;53.136;14.882;2023-11-18T23:30:14;3.90;99.90
75210;DHT22;63796;53.136;14.882;2023-11-18T23:32:41;3.90;99.90
75210;DHT22;63796;53.136;14.882;2023-11-18T23:35:09;3.90;99.90
75210;DHT22;63796;53.136;14.882;2023-11-18T23:37:37;3.90;99.90
75210;DHT22;63796;53.136;14.882;2023-11-18T23:40:07;3.90;99.90
75210;DHT22;63796;53.136;14.882;2023-11-18T23:42:39;4.00;99.90
75210;DHT22;63796;53.136;14.882;2023-11-18T23:45:07;4.00;99.90
75210;DHT22;63796;53.136;14.882;2023-11-18T23:47:40;3.90;99.90
75210;DHT22;63796;53.136;14.882;2023-11-18T23:50:09;3.90;99.90
75210;DHT22;63796;53.136;14.882;2023-11-18T23:52:40;3.90;99.90
75210;DHT22;63796;53.136;14.882;2023-11-18T23:55:07;3.90;99.90
75210;DHT22;63796;53.136;14.882;2023-11-18T23:57:40;3.90;99.90
